sensor_id;sensor_type;location;lat;lon;timestamp;pressure;altitude;pressure_sealevel;temperature;humidity
5691;BME280;2870;42.680;23.364;2023-03-01T00:00:53;95627.75;;;6.74;99.84
5691;BME280;2870;42.680;23.364;2023-03-01T00:03:21;95621.94;;;6.97;98.76
5691;BME280;2870;42.680;23.364;2023-03-01T00:05:48;95617.06;;;6.78;98.89
5691;BME280;2870;42.680;23.364;2023-03-01T00:08:14;95624.78;;;6.91;98.49
5691;BME280;2870;42.680;23.364;2023-03-01T00:10:41;95628.09;;;6.89;98.42
5691;BME280;2870;42.680;23.364;2023-03-01T00:13:08;95619.44;;;6.69;98.84
5691;BME280;2870;42.680;23.364;2023-03-01T00:15:38;95616.69;;;6.63;99.69
5691;BME280;2870;42.680;23.364;2023-03-01T00:18:05;95617.41;;;6.69;99.42
5691;BME280;2870;42.680;23.364;2023-03-01T00:20:34;95619.44;;;6.93;98.08
5691;BME280;2870;42.680;23.364;2023-03-01T00:23:01;95606.38;;;6.82;98.58
5691;BME280;2870;42.680;23.364;2023-03-01T00:25:28;95604.13;;;6.81;98.97
5691;BME280;2870;42.680;23.364;2023-03-01T00:27:54;95607.47;;;6.74;98.86
5691;BME280;2870;42.680;23.364;2023-03-01T00:30:21;95598.41;;;6.43;100.00
5691;BME280;2870;42.680;23.364;2023-03-01T00:32:48;95597.72;;;6.61;99.85
5691;BME280;2870;42.680;23.364;2023-03-01T00:35:15;95601.34;;;6.51;99.88
5691;BME280;2870;42.680;23.364;2023-03-01T00:37:43;95594.88;;;6.43;100.00
5691;BME280;2870;42.680;23.364;2023-03-01T00:40:11;95588.44;;;6.53;100.00
5691;BME280;2870;42.680;23.364;2023-03-01T00:42:38;95580.00;;;6.59;99.74
5691;BME280;2870;42.680;23.364;2023-03-01T00:45:06;95583.34;;;6.52;100.00
5691;BME280;2870;42.680;23.364;2023-03-01T00:47:33;95584.47;;;6.43;100.00
5691;BME280;2870;42.680;23.364;2023-03-01T00:50:00;95581.25;;;6.58;99.57
5691;BME280;2870;42.680;23.364;2023-03-01T00:52:26;95589.25;;;6.48;99.95
5691;BME280;2870;42.680;23.364;2023-03-01T00:54:55;95594.88;;;6.43;100.00
5691;BME280;2870;42.680;23.364;2023-03-01T00:57:23;95579.88;;;6.46;100.00
5691;BME280;2870;42.680;23.364;2023-03-01T00:59:50;95580.56;;;6.52;99.12
5691;BME280;2870;42.680;23.364;2023-03-01T01:02:18;95579.66;;;6.44;99.86
5691;BME280;2870;42.680;23.364;2023-03-01T01:04:45;95583.03;;;6.61;99.69
5691;BME280;2870;42.680;23.364;2023-03-01T01:07:12;95573.09;;;6.41;99.88
5691;BME280;2870;42.680;23.364;2023-03-01T01:09:39;95587.13;;;6.30;100.00
5691;BME280;2870;42.680;23.364;2023-03-01T01:12:07;95581.09;;;6.50;99.69
5691;BME280;2870;42.680;23.364;2023-03-01T01:14:35;95581.41;;;6.47;99.69
5691;BME280;2870;42.680;23.364;2023-03-01T01:17:02;95590.41;;;6.58;98.57
5691;BME280;2870;42.680;23.364;2023-03-01T01:19:29;95589.28;;;6.43;98.97
5691;BME280;2870;42.680;23.364;2023-03-01T01:21:56;95587.44;;;6.51;99.05
5691;BME280;2870;42.680;23.364;2023-03-01T01:24:23;95574.19;;;6.57;98.25
5691;BME280;2870;42.680;23.364;2023-03-01T01:26:50;95582.53;;;6.57;98.44
5691;BME280;2870;42.680;23.364;2023-03-01T01:29:18;95583.94;;;6.45;98.63
5691;BME280;2870;42.680;23.364;2023-03-01T01:31:45;95582.22;;;6.42;98.68
5691;BME280;2870;42.680;23.364;2023-03-01T01:34:14;95580.47;;;6.63;98.12
5691;BME280;2870;42.680;23.364;2023-03-01T01:36:42;95584.13;;;6.77;97.00
5691;BME280;2870;42.680;23.364;2023-03-01T01:39:09;95584.97;;;6.90;95.59
5691;BME280;2870;42.680;23.364;2023-03-01T01:41:39;95596.03;;;6.77;95.97
5691;BME280;2870;42.680;23.364;2023-03-01T01:44:16;95594.41;;;6.63;96.68
5691;BME280;2870;42.680;23.364;2023-03-01T01:46:47;95591.44;;;6.80;95.67
5691;BME280;2870;42.680;23.364;2023-03-01T01:49:28;95599.09;;;6.74;95.73
5691;BME280;2870;42.680;23.364;2023-03-01T01:52:00;95603.69;;;6.47;96.10
5691;BME280;2870;42.680;23.364;2023-03-01T01:54:35;95590.91;;;6.57;97.01
5691;BME280;2870;42.680;23.364;2023-03-01T01:57:06;95585.34;;;6.57;95.26
5691;BME280;2870;42.680;23.364;2023-03-01T01:59:34;95587.78;;;6.66;95.08
5691;BME280;2870;42.680;23.364;2023-03-01T02:02:04;95580.22;;;6.61;95.05
5691;BME280;2870;42.680;23.364;2023-03-01T02:04:32;95578.91;;;6.68;94.36
5691;BME280;2870;42.680;23.364;2023-03-01T02:07:04;95578.44;;;6.63;94.43
5691;BME280;2870;42.680;23.364;2023-03-01T02:09:32;95574.56;;;6.91;93.12
5691;BME280;2870;42.680;23.364;2023-03-01T02:12:00;95567.69;;;6.73;93.24
5691;BME280;2870;42.680;23.364;2023-03-01T02:14:27;95564.56;;;6.82;92.53
5691;BME280;2870;42.680;23.364;2023-03-01T02:16:54;95559.22;;;6.60;93.35
5691;BME280;2870;42.680;23.364;2023-03-01T02:19:33;95569.56;;;6.65;93.86
5691;BME280;2870;42.680;23.364;2023-03-01T02:22:13;95572.09;;;6.63;93.67
5691;BME280;2870;42.680;23.364;2023-03-01T02:24:51;95569.72;;;6.73;92.87
5691;BME280;2870;42.680;23.364;2023-03-01T02:27:23;95571.84;;;6.85;92.99
5691;BME280;2870;42.680;23.364;2023-03-01T02:29:54;95576.63;;;6.66;93.40
5691;BME280;2870;42.680;23.364;2023-03-01T02:32:21;95577.56;;;6.74;93.92
5691;BME280;2870;42.680;23.364;2023-03-01T02:34:51;95559.69;;;6.64;93.87
5691;BME280;2870;42.680;23.364;2023-03-01T02:37:19;95579.09;;;6.75;94.01
5691;BME280;2870;42.680;23.364;2023-03-01T02:39:56;95575.00;;;6.52;94.89
5691;BME280;2870;42.680;23.364;2023-03-01T02:42:27;95586.72;;;6.69;94.72
5691;BME280;2870;42.680;23.364;2023-03-01T02:44:56;95573.63;;;6.64;95.14
5691;BME280;2870;42.680;23.364;2023-03-01T02:47:23;95576.63;;;6.66;95.49
5691;BME280;2870;42.680;23.364;2023-03-01T02:49:50;95581.41;;;6.71;94.44
5691;BME280;2870;42.680;23.364;2023-03-01T02:52:41;95574.88;;;6.63;95.42
5691;BME280;2870;42.680;23.364;2023-03-01T02:55:13;95569.78;;;6.67;95.18
5691;BME280;2870;42.680;23.364;2023-03-01T02:57:43;95539.28;;;6.26;95.77
5691;BME280;2870;42.680;23.364;2023-03-01T03:00:15;95572.50;;;6.73;94.95
5691;BME280;2870;42.680;23.364;2023-03-01T03:02:45;95572.78;;;6.69;94.57
5691;BME280;2870;42.680;23.364;2023-03-01T03:05:14;95572.34;;;6.65;94.83
5691;BME280;2870;42.680;23.364;2023-03-01T03:07:43;95572.91;;;6.58;94.72
5691;BME280;2870;42.680;23.364;2023-03-01T03:10:12;95568.66;;;6.51;95.26
5691;BME280;2870;42.680;23.364;2023-03-01T03:12:40;95563.38;;;6.23;96.20
5691;BME280;2870;42.680;23.364;2023-03-01T03:15:09;95564.69;;;6.47;95.92
5691;BME280;2870;42.680;23.364;2023-03-01T03:17:41;95576.34;;;6.45;95.56
5691;BME280;2870;42.680;23.364;2023-03-01T03:20:10;95574.34;;;6.40;95.95
5691;BME280;2870;42.680;23.364;2023-03-01T03:22:38;95575.06;;;6.46;96.03
5691;BME280;2870;42.680;23.364;2023-03-01T03:25:06;95571.28;;;6.44;95.65
5691;BME280;2870;42.680;23.364;2023-03-01T03:27:38;95574.88;;;6.38;95.99
5691;BME280;2870;42.680;23.364;2023-03-01T03:30:07;95583.56;;;6.29;96.51
5691;BME280;2870;42.680;23.364;2023-03-01T03:32:34;95579.06;;;6.26;97.08
5691;BME280;2870;42.680;23.364;2023-03-01T03:35:03;95576.22;;;6.32;96.93
5691;BME280;2870;42.680;23.364;2023-03-01T03:37:35;95579.75;;;6.32;97.07
5691;BME280;2870;42.680;23.364;2023-03-01T03:40:19;95585.75;;;6.42;96.26
5691;BME280;2870;42.680;23.364;2023-03-01T03:42:46;95584.63;;;6.51;95.61
5691;BME280;2870;42.680;23.364;2023-03-01T03:45:13;95582.44;;;6.44;96.49
5691;BME280;2870;42.680;23.364;2023-03-01T03:47:41;95589.19;;;6.54;95.88
5691;BME280;2870;42.680;23.364;2023-03-01T03:50:11;95595.56;;;6.49;95.71
5691;BME280;2870;42.680;23.364;2023-03-01T03:52:38;95590.03;;;6.43;95.60
5691;BME280;2870;42.680;23.364;2023-03-01T03:55:06;95600.09;;;6.52;96.07
5691;BME280;2870;42.680;23.364;2023-03-01T03:57:36;95599.34;;;6.21;97.48
5691;BME280;2870;42.680;23.364;2023-03-01T04:00:04;95591.69;;;6.27;96.69
5691;BME280;2870;42.680;23.364;2023-03-01T04:02:38;95565.28;;;6.09;96.63
5691;BME280;2870;42.680;23.364;2023-03-01T04:05:06;95600.75;;;6.33;96.43
5691;BME280;2870;42.680;23.364;2023-03-01T04:07:35;95591.69;;;6.27;96.24
5691;BME280;2870;42.680;23.364;2023-03-01T04:10:02;95601.28;;;6.02;97.83
5691;BME280;2870;42.680;23.364;2023-03-01T04:12:29;95598.22;;;6.05;98.45
5691;BME280;2870;42.680;23.364;2023-03-01T04:14:55;95598.22;;;6.05;98.75
5691;BME280;2870;42.680;23.364;2023-03-01T04:17:23;95600.75;;;6.03;98.98
5691;BME280;2870;42.680;23.364;2023-03-01T04:19:50;95602.28;;;6.04;98.84
5691;BME280;2870;42.680;23.364;2023-03-01T04:22:17;95599.03;;;5.95;98.94
5691;BME280;2870;42.680;23.364;2023-03-01T04:24:45;95591.47;;;5.90;99.66
5691;BME280;2870;42.680;23.364;2023-03-01T04:27:12;95598.03;;;5.98;99.18
5691;BME280;2870;42.680;23.364;2023-03-01T04:29:38;95590.41;;;5.98;98.73
5691;BME280;2870;42.680;23.364;2023-03-01T04:32:05;95595.19;;;6.03;98.62
5691;BME280;2870;42.680;23.364;2023-03-01T04:34:32;95593.13;;;6.09;98.27
5691;BME280;2870;42.680;23.364;2023-03-01T04:36:59;95598.16;;;6.11;98.32
5691;BME280;2870;42.680;23.364;2023-03-01T04:39:25;95594.16;;;6.36;97.29
5691;BME280;2870;42.680;23.364;2023-03-01T04:41:54;95594.00;;;6.23;97.95
5691;BME280;2870;42.680;23.364;2023-03-01T04:44:20;95587.25;;;6.43;96.96
5691;BME280;2870;42.680;23.364;2023-03-01T04:46:48;95594.25;;;6.25;97.32
5691;BME280;2870;42.680;23.364;2023-03-01T04:49:15;95583.66;;;6.18;97.44
5691;BME280;2870;42.680;23.364;2023-03-01T04:51:42;95587.56;;;6.09;97.83
5691;BME280;2870;42.680;23.364;2023-03-01T04:54:09;95588.38;;;5.99;98.19
5691;BME280;2870;42.680;23.364;2023-03-01T04:56:36;95582.69;;;5.80;99.38
5691;BME280;2870;42.680;23.364;2023-03-01T04:59:05;95588.66;;;5.95;99.07
5691;BME280;2870;42.680;23.364;2023-03-01T05:01:33;95590.50;;;6.17;98.16
5691;BME280;2870;42.680;23.364;2023-03-01T05:04:01;95589.81;;;6.11;98.21
5691;BME280;2870;42.680;23.364;2023-03-01T05:06:30;95592.75;;;6.24;97.75
5691;BME280;2870;42.680;23.364;2023-03-01T05:08:58;95591.78;;;6.16;98.10
5691;BME280;2870;42.680;23.364;2023-03-01T05:11:25;95584.25;;;6.11;97.78
5691;BME280;2870;42.680;23.364;2023-03-01T05:13:53;95591.44;;;6.31;97.27
5691;BME280;2870;42.680;23.364;2023-03-01T05:16:22;95591.69;;;6.27;97.07
5691;BME280;2870;42.680;23.364;2023-03-01T05:18:48;95594.16;;;6.36;96.86
5691;BME280;2870;42.680;23.364;2023-03-01T05:21:16;95595.50;;;6.30;96.94
5691;BME280;2870;42.680;23.364;2023-03-01T05:23:43;95587.69;;;6.23;97.31
5691;BME280;2870;42.680;23.364;2023-03-01T05:26:10;95586.41;;;6.24;96.81
5691;BME280;2870;42.680;23.364;2023-03-01T05:28:38;95581.03;;;6.31;97.18
5691;BME280;2870;42.680;23.364;2023-03-01T05:31:06;95591.94;;;6.29;97.17
5691;BME280;2870;42.680;23.364;2023-03-01T05:33:36;95588.75;;;6.44;96.45
5691;BME280;2870;42.680;23.364;2023-03-01T05:36:04;95590.09;;;6.37;96.62
5691;BME280;2870;42.680;23.364;2023-03-01T05:38:31;95583.34;;;6.52;96.38
5691;BME280;2870;42.680;23.364;2023-03-01T05:40:58;95595.28;;;6.22;97.04
5691;BME280;2870;42.680;23.364;2023-03-01T05:43:25;95599.84;;;6.25;97.00
5691;BME280;2870;42.680;23.364;2023-03-01T05:45:57;95593.69;;;6.32;96.87
5691;BME280;2870;42.680;23.364;2023-03-01T05:48:25;95604.81;;;6.32;96.84
5691;BME280;2870;42.680;23.364;2023-03-01T05:50:53;95600.84;;;6.22;97.17
5691;BME280;2870;42.680;23.364;2023-03-01T05:53:20;95611.34;;;6.41;96.92
5691;BME280;2870;42.680;23.364;2023-03-01T05:55:47;95607.00;;;6.45;96.75
5691;BME280;2870;42.680;23.364;2023-03-01T05:58:16;95620.34;;;6.22;97.02
5691;BME280;2870;42.680;23.364;2023-03-01T06:00:45;95620.03;;;6.31;97.18
5691;BME280;2870;42.680;23.364;2023-03-01T06:03:14;95622.91;;;6.20;97.39
5691;BME280;2870;42.680;23.364;2023-03-01T06:05:41;95624.34;;;6.32;96.72
5691;BME280;2870;42.680;23.364;2023-03-01T06:08:11;95620.00;;;6.61;95.37
5691;BME280;2870;42.680;23.364;2023-03-01T06:10:38;95626.09;;;6.35;95.08
5691;BME280;2870;42.680;23.364;2023-03-01T06:13:06;95620.56;;;6.30;96.30
5691;BME280;2870;42.680;23.364;2023-03-01T06:15:32;95629.59;;;6.42;95.84
5691;BME280;2870;42.680;23.364;2023-03-01T06:17:59;95636.00;;;6.31;96.38
5691;BME280;2870;42.680;23.364;2023-03-01T06:20:27;95640.91;;;6.49;96.42
5691;BME280;2870;42.680;23.364;2023-03-01T06:22:54;95641.22;;;6.10;97.41
5691;BME280;2870;42.680;23.364;2023-03-01T06:25:24;95636.63;;;6.13;97.17
5691;BME280;2870;42.680;23.364;2023-03-01T06:27:52;95632.56;;;6.19;97.85
5691;BME280;2870;42.680;23.364;2023-03-01T06:30:21;95634.38;;;6.11;97.75
5691;BME280;2870;42.680;23.364;2023-03-01T06:32:48;95647.09;;;6.36;97.86
5691;BME280;2870;42.680;23.364;2023-03-01T06:35:16;95641.88;;;6.52;96.88
5691;BME280;2870;42.680;23.364;2023-03-01T06:37:44;95642.81;;;6.35;96.35
5691;BME280;2870;42.680;23.364;2023-03-01T06:40:12;95641.84;;;6.57;95.49
5691;BME280;2870;42.680;23.364;2023-03-01T06:42:43;95648.56;;;6.43;95.49
5691;BME280;2870;42.680;23.364;2023-03-01T06:45:11;95645.25;;;6.45;95.22
5691;BME280;2870;42.680;23.364;2023-03-01T06:47:37;95641.72;;;6.44;94.77
5691;BME280;2870;42.680;23.364;2023-03-01T06:50:05;95644.56;;;6.63;94.50
5691;BME280;2870;42.680;23.364;2023-03-01T06:52:32;95646.75;;;6.76;94.26
5691;BME280;2870;42.680;23.364;2023-03-01T06:54:59;95635.34;;;6.74;93.14
5691;BME280;2870;42.680;23.364;2023-03-01T06:57:26;95638.78;;;6.85;92.92
5691;BME280;2870;42.680;23.364;2023-03-01T06:59:54;95647.41;;;6.57;94.17
5691;BME280;2870;42.680;23.364;2023-03-01T07:02:21;95640.91;;;6.49;94.84
5691;BME280;2870;42.680;23.364;2023-03-01T07:04:48;95645.56;;;6.66;94.62
5691;BME280;2870;42.680;23.364;2023-03-01T07:07:16;95640.94;;;6.98;92.71
5691;BME280;2870;42.680;23.364;2023-03-01T07:09:43;95642.59;;;6.58;94.26
5691;BME280;2870;42.680;23.364;2023-03-01T07:12:10;95641.94;;;6.76;94.31
5691;BME280;2870;42.680;23.364;2023-03-01T07:14:37;95647.72;;;6.78;93.32
5691;BME280;2870;42.680;23.364;2023-03-01T07:17:05;95638.94;;;6.69;93.49
5691;BME280;2870;42.680;23.364;2023-03-01T07:19:32;95638.34;;;6.51;93.93
5691;BME280;2870;42.680;23.364;2023-03-01T07:21:59;95639.34;;;6.54;94.49
5691;BME280;2870;42.680;23.364;2023-03-01T07:24:25;95640.16;;;6.49;94.70
5691;BME280;2870;42.680;23.364;2023-03-01T07:26:52;95641.19;;;6.46;94.97
5691;BME280;2870;42.680;23.364;2023-03-01T07:29:19;95637.75;;;6.64;94.80
5691;BME280;2870;42.680;23.364;2023-03-01T07:31:46;95632.16;;;7.13;93.61
5691;BME280;2870;42.680;23.364;2023-03-01T07:34:14;95635.06;;;7.26;90.88
5691;BME280;2870;42.680;23.364;2023-03-01T07:36:41;95632.63;;;7.36;90.24
5691;BME280;2870;42.680;23.364;2023-03-01T07:39:09;95627.84;;;7.12;90.87
5691;BME280;2870;42.680;23.364;2023-03-01T07:41:36;95628.50;;;6.99;89.98
5691;BME280;2870;42.680;23.364;2023-03-01T07:44:03;95627.72;;;7.23;88.68
5691;BME280;2870;42.680;23.364;2023-03-01T07:46:30;95632.09;;;7.18;90.05
5691;BME280;2870;42.680;23.364;2023-03-01T07:48:57;95621.59;;;7.25;89.86
5691;BME280;2870;42.680;23.364;2023-03-01T07:51:25;95626.91;;;7.47;89.42
5691;BME280;2870;42.680;23.364;2023-03-01T07:53:52;95624.25;;;7.36;87.79
5691;BME280;2870;42.680;23.364;2023-03-01T07:56:19;95620.38;;;7.20;89.10
5691;BME280;2870;42.680;23.364;2023-03-01T07:58:47;95620.84;;;7.24;88.46
5691;BME280;2870;42.680;23.364;2023-03-01T08:01:16;95604.69;;;7.60;86.93
5691;BME280;2870;42.680;23.364;2023-03-01T08:03:43;95589.88;;;7.47;86.92
5691;BME280;2870;42.680;23.364;2023-03-01T08:06:11;95619.00;;;7.32;87.50
5691;BME280;2870;42.680;23.364;2023-03-01T08:08:40;95603.53;;;7.69;87.38
5691;BME280;2870;42.680;23.364;2023-03-01T08:11:10;95595.91;;;7.69;85.58
5691;BME280;2870;42.680;23.364;2023-03-01T08:13:38;95603.66;;;7.77;84.78
5691;BME280;2870;42.680;23.364;2023-03-01T08:16:07;95594.56;;;7.38;86.65
5691;BME280;2870;42.680;23.364;2023-03-01T08:18:34;95609.81;;;7.37;86.76
5691;BME280;2870;42.680;23.364;2023-03-01T08:21:02;95594.09;;;7.34;87.03
5691;BME280;2870;42.680;23.364;2023-03-01T08:23:30;95601.97;;;7.55;87.03
5691;BME280;2870;42.680;23.364;2023-03-01T08:26:05;95600.53;;;7.67;86.02
5691;BME280;2870;42.680;23.364;2023-03-01T08:28:32;95605.13;;;7.46;86.15
5691;BME280;2870;42.680;23.364;2023-03-01T08:30:59;95606.75;;;7.54;86.38
5691;BME280;2870;42.680;23.364;2023-03-01T08:33:26;95605.13;;;7.83;86.10
5691;BME280;2870;42.680;23.364;2023-03-01T08:36:02;95603.59;;;7.82;85.81
5691;BME280;2870;42.680;23.364;2023-03-01T08:38:29;95597.16;;;8.06;85.24
5691;BME280;2870;42.680;23.364;2023-03-01T08:40:59;95590.75;;;7.92;85.22
5691;BME280;2870;42.680;23.364;2023-03-01T08:43:28;95579.28;;;7.96;84.10
5691;BME280;2870;42.680;23.364;2023-03-01T08:45:55;95595.44;;;7.84;82.89
5691;BME280;2870;42.680;23.364;2023-03-01T08:48:22;95603.22;;;8.23;81.55
5691;BME280;2870;42.680;23.364;2023-03-01T08:50:48;95601.19;;;8.24;80.26
5691;BME280;2870;42.680;23.364;2023-03-01T08:53:15;95603.53;;;8.20;80.86
5691;BME280;2870;42.680;23.364;2023-03-01T08:55:42;95610.75;;;8.61;78.51
5691;BME280;2870;42.680;23.364;2023-03-01T08:58:09;95604.47;;;8.41;79.17
5691;BME280;2870;42.680;23.364;2023-03-01T09:00:37;95615.13;;;7.92;80.85
5691;BME280;2870;42.680;23.364;2023-03-01T09:03:04;95612.13;;;8.22;79.86
5691;BME280;2870;42.680;23.364;2023-03-01T09:05:31;95610.28;;;8.43;80.09
5691;BME280;2870;42.680;23.364;2023-03-01T09:07:58;95609.06;;;8.71;79.52
5691;BME280;2870;42.680;23.364;2023-03-01T09:10:25;95600.47;;;8.82;77.78
5691;BME280;2870;42.680;23.364;2023-03-01T09:12:52;95606.47;;;8.73;77.51
5691;BME280;2870;42.680;23.364;2023-03-01T09:15:19;95601.88;;;9.02;77.93
5691;BME280;2870;42.680;23.364;2023-03-01T09:17:47;95600.66;;;8.71;77.37
5691;BME280;2870;42.680;23.364;2023-03-01T09:20:14;95609.78;;;8.26;80.36
5691;BME280;2870;42.680;23.364;2023-03-01T09:22:41;95611.47;;;8.16;80.43
5691;BME280;2870;42.680;23.364;2023-03-01T09:25:08;95601.34;;;8.45;80.08
5691;BME280;2870;42.680;23.364;2023-03-01T09:27:35;95600.00;;;8.78;78.70
5691;BME280;2870;42.680;23.364;2023-03-01T09:30:02;95596.97;;;8.49;79.32
5691;BME280;2870;42.680;23.364;2023-03-01T09:32:30;95598.81;;;8.60;79.45
5691;BME280;2870;42.680;23.364;2023-03-01T09:34:58;95600.66;;;8.71;79.35
5691;BME280;2870;42.680;23.364;2023-03-01T09:37:30;95598.28;;;8.62;79.70
5691;BME280;2870;42.680;23.364;2023-03-01T09:39:57;95596.56;;;8.72;79.52
5691;BME280;2870;42.680;23.364;2023-03-01T09:42:24;95599.41;;;8.85;79.12
5691;BME280;2870;42.680;23.364;2023-03-01T09:44:56;95590.66;;;8.30;79.34
5691;BME280;2870;42.680;23.364;2023-03-01T09:47:27;95586.81;;;8.01;81.00
5691;BME280;2870;42.680;23.364;2023-03-01T09:50:04;95581.75;;;8.00;81.10
5691;BME280;2870;42.680;23.364;2023-03-01T09:52:38;95585.25;;;8.19;81.10
5691;BME280;2870;42.680;23.364;2023-03-01T09:55:10;95577.44;;;7.98;81.57
5691;BME280;2870;42.680;23.364;2023-03-01T09:57:43;95580.63;;;8.54;79.90
5691;BME280;2870;42.680;23.364;2023-03-01T10:00:24;95575.19;;;8.29;80.78
5691;BME280;2870;42.680;23.364;2023-03-01T10:03:00;95571.44;;;7.94;81.50
5691;BME280;2870;42.680;23.364;2023-03-01T10:05:36;95582.03;;;8.47;79.72
5691;BME280;2870;42.680;23.364;2023-03-01T10:08:26;95563.97;;;8.61;79.36
5691;BME280;2870;42.680;23.364;2023-03-01T10:10:57;95575.78;;;8.54;79.05
5691;BME280;2870;42.680;23.364;2023-03-01T10:13:30;95567.31;;;8.73;78.67
5691;BME280;2870;42.680;23.364;2023-03-01T10:16:05;95575.91;;;8.62;78.74
5691;BME280;2870;42.680;23.364;2023-03-01T10:18:37;95563.59;;;8.38;79.89
5691;BME280;2870;42.680;23.364;2023-03-01T10:21:14;95568.38;;;8.57;79.88
5691;BME280;2870;42.680;23.364;2023-03-01T10:23:42;95553.09;;;8.84;78.75
5691;BME280;2870;42.680;23.364;2023-03-01T10:26:18;95551.59;;;8.83;78.05
5691;BME280;2870;42.680;23.364;2023-03-01T10:28:55;95553.63;;;8.56;78.13
5691;BME280;2870;42.680;23.364;2023-03-01T10:31:25;95549.66;;;8.65;78.62
5691;BME280;2870;42.680;23.364;2023-03-01T10:33:54;95542.47;;;8.69;78.34
5691;BME280;2870;42.680;23.364;2023-03-01T10:36:23;95544.94;;;8.60;78.74
5691;BME280;2870;42.680;23.364;2023-03-01T10:38:52;95542.13;;;8.46;79.03
5691;BME280;2870;42.680;23.364;2023-03-01T10:41:20;95538.06;;;8.74;78.51
5691;BME280;2870;42.680;23.364;2023-03-01T10:43:49;95529.69;;;8.74;77.62
5691;BME280;2870;42.680;23.364;2023-03-01T10:46:25;95530.09;;;8.91;77.40
5691;BME280;2870;42.680;23.364;2023-03-01T10:49:14;95532.78;;;8.84;76.57
5691;BME280;2870;42.680;23.364;2023-03-01T10:51:44;95524.41;;;8.57;77.45
5691;BME280;2870;42.680;23.364;2023-03-01T10:54:20;95528.06;;;8.52;77.99
5691;BME280;2870;42.680;23.364;2023-03-01T10:56:49;95538.91;;;8.56;78.04
5691;BME280;2870;42.680;23.364;2023-03-01T10:59:27;95536.13;;;8.69;78.08
5691;BME280;2870;42.680;23.364;2023-03-01T11:02:16;95523.19;;;8.66;78.55
5691;BME280;2870;42.680;23.364;2023-03-01T11:05:00;95527.53;;;8.80;78.15
5691;BME280;2870;42.680;23.364;2023-03-01T11:07:28;95530.06;;;9.05;77.17
5691;BME280;2870;42.680;23.364;2023-03-01T11:09:55;95520.31;;;8.71;77.79
5691;BME280;2870;42.680;23.364;2023-03-01T11:12:22;95519.19;;;9.14;77.29
5691;BME280;2870;42.680;23.364;2023-03-01T11:14:53;95534.22;;;9.24;75.12
5691;BME280;2870;42.680;23.364;2023-03-01T11:17:23;95534.06;;;9.09;76.36
5691;BME280;2870;42.680;23.364;2023-03-01T11:20:01;95526.50;;;9.31;75.31
5691;BME280;2870;42.680;23.364;2023-03-01T11:22:30;95526.81;;;9.27;74.99
5691;BME280;2870;42.680;23.364;2023-03-01T11:24:59;95534.28;;;9.45;74.91
5691;BME280;2870;42.680;23.364;2023-03-01T11:27:29;95525.63;;;9.22;75.61
5691;BME280;2870;42.680;23.364;2023-03-01T11:30:01;95532.22;;;9.12;76.03
5691;BME280;2870;42.680;23.364;2023-03-01T11:32:34;95524.63;;;8.86;77.40
5691;BME280;2870;42.680;23.364;2023-03-01T11:35:08;95528.78;;;9.06;77.31
5691;BME280;2870;42.680;23.364;2023-03-01T11:37:43;95526.44;;;8.70;77.24
5691;BME280;2870;42.680;23.364;2023-03-01T11:40:13;95516.00;;;8.70;77.40
5691;BME280;2870;42.680;23.364;2023-03-01T11:42:48;95510.28;;;8.89;78.22
5691;BME280;2870;42.680;23.364;2023-03-01T11:45:16;95516.56;;;9.29;77.15
5691;BME280;2870;42.680;23.364;2023-03-01T11:48:03;95509.63;;;9.10;77.37
5691;BME280;2870;42.680;23.364;2023-03-01T11:50:37;95502.06;;;9.18;76.83
5691;BME280;2870;42.680;23.364;2023-03-01T11:53:34;95496.59;;;9.46;76.16
5691;BME280;2870;42.680;23.364;2023-03-01T11:56:16;95488.06;;;9.18;77.33
5691;BME280;2870;42.680;23.364;2023-03-01T11:58:56;95481.78;;;9.38;75.81
5691;BME280;2870;42.680;23.364;2023-03-01T12:01:43;95488.19;;;9.46;75.30
5691;BME280;2870;42.680;23.364;2023-03-01T12:07:20;95496.16;;;9.55;74.94
5691;BME280;2870;42.680;23.364;2023-03-01T12:10:01;95493.09;;;9.88;73.96
5691;BME280;2870;42.680;23.364;2023-03-01T12:12:42;95488.66;;;9.71;74.46
5691;BME280;2870;42.680;23.364;2023-03-01T12:18:29;95476.56;;;9.76;74.84
5691;BME280;2870;42.680;23.364;2023-03-01T12:21:09;95480.78;;;9.91;73.72
5691;BME280;2870;42.680;23.364;2023-03-01T12:24:10;95484.91;;;9.35;75.66
5691;BME280;2870;42.680;23.364;2023-03-01T12:26:47;95478.16;;;9.17;76.51
5691;BME280;2870;42.680;23.364;2023-03-01T12:29:25;95480.91;;;9.30;76.65
5691;BME280;2870;42.680;23.364;2023-03-01T12:32:04;95468.63;;;8.99;77.89
5691;BME280;2870;42.680;23.364;2023-03-01T12:34:55;95477.13;;;8.93;77.41
5691;BME280;2870;42.680;23.364;2023-03-01T12:37:38;95465.97;;;8.80;78.04
5691;BME280;2870;42.680;23.364;2023-03-01T12:40:31;95472.28;;;8.94;77.61
5691;BME280;2870;42.680;23.364;2023-03-01T12:43:09;95465.75;;;8.91;77.99
5691;BME280;2870;42.680;23.364;2023-03-01T12:46:02;95456.78;;;9.06;77.95
5691;BME280;2870;42.680;23.364;2023-03-01T12:48:40;95459.03;;;9.08;77.65
5691;BME280;2870;42.680;23.364;2023-03-01T12:51:13;95464.25;;;9.24;77.58
5691;BME280;2870;42.680;23.364;2023-03-01T12:53:43;95463.31;;;9.22;76.71
5691;BME280;2870;42.680;23.364;2023-03-01T12:56:15;95455.56;;;9.15;77.74
5691;BME280;2870;42.680;23.364;2023-03-01T12:58:51;95460.56;;;9.29;77.87
5691;BME280;2870;42.680;23.364;2023-03-01T13:01:32;95453.41;;;9.21;77.48
5691;BME280;2870;42.680;23.364;2023-03-01T13:04:14;95451.34;;;9.21;77.98
5691;BME280;2870;42.680;23.364;2023-03-01T13:06:50;95454.34;;;9.23;77.60
5691;BME280;2870;42.680;23.364;2023-03-01T13:09:26;95453.22;;;9.06;78.00
5691;BME280;2870;42.680;23.364;2023-03-01T13:11:56;95450.28;;;8.64;80.67
5691;BME280;2870;42.680;23.364;2023-03-01T13:14:44;95463.06;;;8.72;80.97
5691;BME280;2870;42.680;23.364;2023-03-01T13:17:32;95461.47;;;8.64;80.60
5691;BME280;2870;42.680;23.364;2023-03-01T13:20:00;95467.50;;;8.68;80.94
5691;BME280;2870;42.680;23.364;2023-03-01T13:22:32;95455.03;;;8.69;81.47
5691;BME280;2870;42.680;23.364;2023-03-01T13:25:14;95466.84;;;8.62;81.53
5691;BME280;2870;42.680;23.364;2023-03-01T13:27:42;95463.41;;;8.69;81.32
5691;BME280;2870;42.680;23.364;2023-03-01T13:30:41;95456.31;;;8.41;82.25
5691;BME280;2870;42.680;23.364;2023-03-01T13:33:43;95466.81;;;8.35;82.99
5691;BME280;2870;42.680;23.364;2023-03-01T13:36:11;95433.50;;;8.24;82.76
5691;BME280;2870;42.680;23.364;2023-03-01T13:39:00;95462.97;;;8.65;82.36
5691;BME280;2870;42.680;23.364;2023-03-01T13:41:49;95458.22;;;8.73;82.39
5691;BME280;2870;42.680;23.364;2023-03-01T13:44:21;95458.00;;;8.84;81.57
5691;BME280;2870;42.680;23.364;2023-03-01T13:46:55;95458.69;;;8.64;82.50